Aviation Digital Data Service (ADDS)

Output produced by METARs form (0659 UTC 24 March 2019)
found at http://www.aviationweather.gov/metar/data/
 
KDWU 240656Z AUTO 00000KT 10SM CLR M01/M03 A3028 RMK AO2 SLP257 T10061028 FZRANO
KBRY 240655Z AUTO 00000KT 10SM CLR 05/01 A3022 RMK AO1
KBWG 240653Z AUTO 00000KT 10SM CLR 06/M01 A3024 RMK AO2 SLP240 T00561006
KBWG 240520Z 2406/2506 00000KT P6SM BKN140 
     FM241500 20007KT P6SM OVC070 
     PROB30 2418/2422 -SHRA
       
KAAS 240655Z AUTO 10005KT 10SM CLR 08/M05 A3027 RMK AO1
KDVK 240635Z AUTO 00000KT 10SM SCT120 03/00 A3024 RMK AO2
KEKX 240655Z AUTO 00000KT 10SM CLR 06/M03 A3023 RMK AO2 T00611030
KFGX 240655Z AUTO 00000KT 10SM CLR 03/M05 A3027 RMK AO2 T00271051
KFFT 240653Z AUTO 00000KT 10SM CLR 06/M02 A3022 RMK AO2 SLP236 T00561017
KGLW 240655Z AUTO 00000KT 10SM CLR 05/00 A3023 RMK AO2 T00450002
KM21 240655Z AUTO 00000KT 10SM CLR 04/M01 A3022 RMK AO2 T00441007
KI35 240655Z AUTO 00000KT 10SM CLR 01/M03 A3025 RMK AO2 T00101031
KEHR 240656Z AUTO 00000KT 10SM FEW120 07/03 A3022 RMK AO2 SLP247 T00720028
KJKL 240653Z AUTO 10004KT 10SM CLR 08/M11 A3023 RMK AO2 SLP238 T00781111
KJKL 240536Z 2406/2506 VRB03KT P6SM BKN200 
     FM241600 23006KT P6SM BKN200 
     FM250000 VRB03KT P6SM VCSH SCT040 BKN060
       
KKY8 240655Z AUTO 00000KT 10SM FEW042 06/01 A3024 RMK A01
KLEX 240654Z 13005KT 10SM CLR 08/M07 A3022 RMK AO2 SLP233 T00831067
KLEX 240520Z 2406/2506 VRB03KT P6SM BKN130 
     FM241700 22007KT P6SM BKN070 
     FM242000 20007KT P6SM OVC060 
     PROB30 2420/2424 -SHRA
       
KLOZ 240653Z AUTO 00000KT 8SM CLR 03/M02 A3024 RMK AO2 SLP241 T00281017
KLOZ 240536Z 2406/2506 VRB04KT P6SM SCT200 
     FM241600 22007KT P6SM BKN200 
     FM242100 24008KT P6SM SCT050 BKN080 
     FM250300 VRB03KT P6SM VCSH SCT040 BKN070
       
KLOU 240653Z AUTO 21003KT 10SM CLR 07/M06 A3024 RMK AO2 SLP242 T00721061 TSNO
KSDF 240656Z 00000KT 10SM BKN150 09/M06 A3024 RMK AO2 SLP242 T00891056 $
KSDF 240520Z 2406/2512 VRB03KT P6SM BKN130 
     FM241800 20007KT P6SM OVC060 
     PROB30 2418/2422 -SHRA 
     FM250500 VRB04KT 6SM -SHRA OVC035 
     FM250800 VRB03KT 5SM -SHRA BR OVC016
       
K2I0 240655Z AUTO 00000KT 10SM CLR 07/00 A3023 RMK AO2 T00720002
K5M9 240655Z AUTO 09005KT 10SM CLR 09/00 A3020 RMK AO2 T00851005
KM25 240655Z AUTO 11006KT 10SM SCT120 11/00 A3019 RMK AO2 PWINO
K1A6 240655Z AUTO 00000KT 10SM CLR 01/M02 A3027 RMK AO2 T00071024
KEKQ 240656Z AUTO 36007KT 310V030 10SM CLR 01/M02 A3026 RMK AO2 SLP274 T00111017 PNO $
KIOB 240655Z AUTO 12004KT 10SM CLR 04/M04 A3025 RMK AO2
KCEY 240655Z AUTO 10003KT 10SM SCT110 10/00 A3019 RMK AO1
KOWB 240656Z AUTO 09006KT 10SM CLR 08/02 A3022 RMK AO2 PRESFR SLP248 T00780017
KOWB 240520Z 2406/2506 10005KT P6SM BKN200 
     FM241500 17009KT P6SM VCSH OVC060 
     FM241900 19011G21KT P6SM VCSH OVC050 
     FM250000 20008KT P6SM -SHRA BKN045
       
KPAH 240653Z AUTO 00000KT 10SM BKN110 11/01 A3017 RMK AO2 SLP216 T01060011
KPAH 240520Z 2406/2506 VRB03KT P6SM OVC150 
     FM241500 18009KT P6SM VCSH OVC035 
     FM241700 20011G22KT P6SM OVC050 
     FM242300 19008KT P6SM VCSH OVC050 
     FM250500 21008KT P6SM -SHRA OVC024
       
KPBX 240635Z AUTO 13004KT 10SM CLR 06/M09 A3025 RMK AO2 T00631087
KSME 240635Z AUTO 00000KT 10SM CLR 02/M02 A3025 RMK AO2
KSME 240536Z 2406/2506 VRB03KT P6SM BKN200 
     FM241600 21007KT P6SM BKN200 
     FM242200 25006KT P6SM VCSH SCT040 BKN070
       
K6I2 240630Z AUTO 00000KT 10SM CLR 09/M09 A3023 RMK AO2
KBYL 240655Z AUTO 13005KT 10SM CLR 04/M05 A3024 RMK AO1